createdAt,value
2023-01-23T00:01:32.549Z,8.16
2023-01-23T00:04:00.789Z,8.17
2023-01-23T00:06:28.443Z,8.19
2023-01-23T00:08:56.902Z,8.24
2023-01-23T00:11:27.052Z,8.32
2023-01-23T00:13:54.457Z,8.39
2023-01-23T00:16:23.478Z,8.44
2023-01-23T00:18:51.413Z,8.45
2023-01-23T00:21:21.070Z,8.50
2023-01-23T00:23:51.045Z,8.56
2023-01-23T00:26:23.895Z,8.58
2023-01-23T00:28:51.217Z,8.65
2023-01-23T00:31:22.485Z,8.64
2023-01-23T00:33:54.357Z,8.63
2023-01-23T00:36:23.677Z,8.61
2023-01-23T00:38:50.597Z,8.58
2023-01-23T00:41:17.435Z,8.67
2023-01-23T00:43:45.116Z,8.59
2023-01-23T00:46:12.051Z,8.58
2023-01-23T00:48:39.925Z,8.72
2023-01-23T00:51:06.843Z,8.81
2023-01-23T00:53:33.779Z,8.74
2023-01-23T00:56:01.005Z,8.97
2023-01-23T00:58:28.212Z,8.91
2023-01-23T01:00:55.183Z,8.88
2023-01-23T01:03:25.231Z,8.86
2023-01-23T01:05:52.305Z,8.88
2023-01-23T01:08:19.205Z,8.93
2023-01-23T01:10:46.124Z,8.92
2023-01-23T01:13:13.158Z,8.88
2023-01-23T01:15:40.043Z,8.92
2023-01-23T01:18:07.063Z,8.96
2023-01-23T01:20:34.240Z,8.94
2023-01-23T01:23:01.703Z,8.90
2023-01-23T01:25:30.453Z,8.93
2023-01-23T01:27:58.399Z,8.79
2023-01-23T01:30:27.683Z,8.86
2023-01-23T01:32:55.357Z,8.87
2023-01-23T01:35:23.114Z,8.88
2023-01-23T01:37:51.536Z,9.04
2023-01-23T01:40:23.836Z,9.09
2023-01-23T01:42:56.940Z,8.93
2023-01-23T01:46:01.516Z,8.90
2023-01-23T01:49:01.756Z,8.91
2023-01-23T01:51:52.947Z,8.90
2023-01-23T01:54:29.504Z,8.87
2023-01-23T01:57:23.299Z,8.95
2023-01-23T02:00:09.835Z,8.95
2023-01-23T02:02:54.533Z,9.00
2023-01-23T02:05:26.344Z,8.98
2023-01-23T02:08:18.975Z,9.05
2023-01-23T02:10:48.989Z,8.96
2023-01-23T02:13:28.524Z,8.96
2023-01-23T02:15:57.936Z,8.94
2023-01-23T02:18:27.024Z,8.78
2023-01-23T02:20:56.660Z,8.83
2023-01-23T02:24:01.694Z,8.88
2023-01-23T02:26:33.947Z,8.83
2023-01-23T02:29:01.315Z,8.63
2023-01-23T02:31:32.876Z,8.59
2023-01-23T02:34:00.508Z,8.47
2023-01-23T02:36:33.381Z,8.43
2023-01-23T02:39:16.935Z,8.24
2023-01-23T02:41:49.898Z,8.34
2023-01-23T02:44:21.266Z,8.27
2023-01-23T02:46:54.149Z,8.06
2023-01-23T02:49:22.169Z,7.99
2023-01-23T02:51:50.211Z,8.28
2023-01-23T02:54:19.012Z,8.14
2023-01-23T02:56:45.880Z,8.01
2023-01-23T02:59:31.732Z,7.98
2023-01-23T03:01:59.032Z,8.09
2023-01-23T03:04:26.238Z,8.03
2023-01-23T03:06:54.102Z,8.13
2023-01-23T03:09:20.983Z,8.11
2023-01-23T03:11:47.924Z,8.06
2023-01-23T03:14:18.018Z,8.04
2023-01-23T03:16:50.386Z,8.10
2023-01-23T03:19:20.921Z,8.20
2023-01-23T03:21:49.330Z,8.30
2023-01-23T03:24:17.093Z,8.38
2023-01-23T03:26:48.411Z,8.42
2023-01-23T03:29:44.339Z,8.74
2023-01-23T03:32:15.252Z,8.73
2023-01-23T03:34:43.939Z,8.61
2023-01-23T03:37:12.787Z,8.60
2023-01-23T03:40:01.440Z,8.75
2023-01-23T03:42:28.501Z,8.72
2023-01-23T03:44:57.822Z,8.71
2023-01-23T03:47:27.751Z,8.80
2023-01-23T03:49:55.581Z,8.68
2023-01-23T03:52:22.677Z,8.72
2023-01-23T03:54:52.228Z,8.82
2023-01-23T03:57:19.330Z,8.80
2023-01-23T04:00:05.442Z,8.75
2023-01-23T04:02:45.007Z,8.68
2023-01-23T04:05:14.152Z,8.75
2023-01-23T04:07:41.024Z,8.80
2023-01-23T04:10:09.934Z,8.83
2023-01-23T04:12:38.419Z,8.88
2023-01-23T04:15:05.900Z,8.93
2023-01-23T04:17:33.185Z,9.11
2023-01-23T04:20:00.039Z,9.06
2023-01-23T04:22:27.262Z,9.14
2023-01-23T04:24:55.023Z,9.19
2023-01-23T04:27:22.075Z,9.16
2023-01-23T04:29:50.141Z,9.12
2023-01-23T04:32:17.838Z,9.02
2023-01-23T04:34:47.552Z,9.04
2023-01-23T04:37:14.947Z,9.08
2023-01-23T04:39:41.974Z,9.20
2023-01-23T04:42:09.520Z,9.09
2023-01-23T04:44:57.640Z,9.07
2023-01-23T04:47:33.437Z,8.83
2023-01-23T04:50:02.319Z,8.72
2023-01-23T04:52:32.738Z,8.66
2023-01-23T04:54:59.595Z,8.66
2023-01-23T04:57:26.662Z,8.80
2023-01-23T05:00:04.860Z,9.01
2023-01-23T05:02:32.408Z,8.88
2023-01-23T05:04:59.284Z,8.83
2023-01-23T05:07:26.590Z,9.06
2023-01-23T05:10:12.647Z,9.26
2023-01-23T05:12:43.099Z,9.11
2023-01-23T05:15:12.744Z,9.15
2023-01-23T05:17:41.687Z,9.21
2023-01-23T05:20:10.290Z,9.23
2023-01-23T05:22:38.866Z,9.24
2023-01-23T05:25:06.267Z,9.28
2023-01-23T05:27:33.406Z,9.39
2023-01-23T05:30:00.327Z,9.42
2023-01-23T05:32:31.611Z,9.30
2023-01-23T05:35:16.747Z,9.24
2023-01-23T05:37:44.102Z,9.28
2023-01-23T05:40:13.417Z,9.29
2023-01-23T05:42:58.878Z,9.28
2023-01-23T05:45:44.310Z,9.39
2023-01-23T05:48:20.938Z,9.41
2023-01-23T05:50:47.841Z,9.41
2023-01-23T05:53:14.846Z,9.27
2023-01-23T05:55:42.147Z,9.32
2023-01-23T05:58:11.577Z,9.34
2023-01-23T06:00:58.673Z,9.46
2023-01-23T06:03:44.572Z,9.55
2023-01-23T06:06:47.069Z,9.56
2023-01-23T06:09:14.777Z,9.39
2023-01-23T06:11:41.645Z,9.33
2023-01-23T06:14:09.696Z,9.41
2023-01-23T06:16:36.740Z,9.45
2023-01-23T06:19:04.720Z,9.58
2023-01-23T06:21:39.762Z,9.48
2023-01-23T06:24:07.419Z,9.45
2023-01-23T06:26:34.271Z,9.50
2023-01-23T06:29:02.168Z,9.48
2023-01-23T06:31:32.502Z,9.55
2023-01-23T06:34:01.785Z,9.50
2023-01-23T06:36:34.411Z,9.53
2023-01-23T06:39:04.319Z,9.69
2023-01-23T06:41:40.286Z,9.63
2023-01-23T06:44:13.476Z,9.67
2023-01-23T06:46:40.617Z,9.70
2023-01-23T06:49:08.004Z,9.72
2023-01-23T06:51:36.981Z,9.78
2023-01-23T06:54:06.150Z,9.70
2023-01-23T06:56:33.809Z,9.67
2023-01-23T06:59:04.284Z,9.63
2023-01-23T07:01:33.009Z,9.66
2023-01-23T07:04:19.022Z,9.82
2023-01-23T07:06:49.617Z,9.80
2023-01-23T07:09:18.298Z,9.85
2023-01-23T07:11:51.963Z,9.91
2023-01-23T07:14:18.893Z,9.91
2023-01-23T07:16:48.371Z,9.77
2023-01-23T07:19:16.042Z,9.85
2023-01-23T07:21:43.423Z,9.87
2023-01-23T07:24:10.256Z,9.89
2023-01-23T07:26:37.136Z,9.86
2023-01-23T07:29:04.204Z,9.89
2023-01-23T07:31:31.142Z,9.93
2023-01-23T07:33:57.955Z,9.98
2023-01-23T07:36:24.809Z,10.06
2023-01-23T07:38:51.695Z,10.14
2023-01-23T07:41:18.779Z,9.92
2023-01-23T07:43:45.979Z,9.85
2023-01-23T07:46:12.840Z,9.84
2023-01-23T07:48:40.525Z,9.77
2023-01-23T07:51:07.729Z,9.90
2023-01-23T07:53:34.755Z,9.98
2023-01-23T07:56:05.732Z,10.02
2023-01-23T07:58:33.057Z,10.04
2023-01-23T08:01:00.261Z,10.09
2023-01-23T08:03:29.179Z,10.24
2023-01-23T08:05:59.825Z,10.23
2023-01-23T08:08:26.887Z,10.21
2023-01-23T08:10:53.699Z,10.10
2023-01-23T08:13:20.612Z,10.05
2023-01-23T08:15:47.411Z,10.05
2023-01-23T08:18:14.241Z,10.21
2023-01-23T08:20:43.506Z,10.02
2023-01-23T08:23:10.896Z,10.34
2023-01-23T08:25:38.524Z,10.40
2023-01-23T08:28:05.555Z,10.47
2023-01-23T08:30:32.774Z,10.60
2023-01-23T08:33:04.783Z,10.68
2023-01-23T08:35:31.850Z,10.77
2023-01-23T08:38:02.729Z,10.88
2023-01-23T08:40:30.340Z,10.92
2023-01-23T08:42:57.511Z,10.89
2023-01-23T08:45:25.590Z,10.77
2023-01-23T08:47:52.461Z,10.80
2023-01-23T08:50:19.973Z,10.80
2023-01-23T08:52:47.003Z,10.85
2023-01-23T08:55:13.989Z,10.75
2023-01-23T08:57:40.910Z,10.67
2023-01-23T09:00:08.390Z,10.72
2023-01-23T09:02:35.280Z,10.74
2023-01-23T09:05:02.529Z,10.77
2023-01-23T09:07:29.464Z,10.80
2023-01-23T09:09:56.409Z,10.78
2023-01-23T09:12:23.250Z,10.74
2023-01-23T09:14:50.323Z,10.38
2023-01-23T09:17:17.137Z,10.36
2023-01-23T09:19:44.039Z,10.28
2023-01-23T09:22:10.847Z,10.29
2023-01-23T09:24:37.696Z,10.22
2023-01-23T09:27:04.522Z,10.31
2023-01-23T09:29:31.681Z,10.29
2023-01-23T09:31:58.847Z,10.31
2023-01-23T09:34:25.745Z,10.35
2023-01-23T09:36:52.589Z,10.28
2023-01-23T09:39:20.901Z,10.47
2023-01-23T09:41:49.362Z,10.63
2023-01-23T09:44:41.310Z,10.82
2023-01-23T09:47:17.771Z,10.77
2023-01-23T09:49:53.261Z,10.98
2023-01-23T09:52:24.142Z,10.99
2023-01-23T09:55:01.563Z,11.03
2023-01-23T09:57:37.197Z,11.12
2023-01-23T10:00:13.205Z,11.18
2023-01-23T10:02:43.859Z,11.23
2023-01-23T10:05:19.555Z,11.22
2023-01-23T10:07:52.672Z,11.26
2023-01-23T10:10:34.569Z,11.30
2023-01-23T10:13:31.364Z,11.35
2023-01-23T10:16:17.366Z,11.28
2023-01-23T10:19:09.583Z,11.34
2023-01-23T10:21:47.961Z,11.36
2023-01-23T10:24:41.025Z,11.38
2023-01-23T10:27:23.109Z,11.49
2023-01-23T10:29:58.558Z,11.39
2023-01-23T10:32:29.982Z,11.48
2023-01-23T10:35:12.596Z,11.43
2023-01-23T10:37:51.467Z,11.46
2023-01-23T10:40:41.681Z,11.53
2023-01-23T10:43:27.076Z,11.59
2023-01-23T10:45:53.995Z,11.79
2023-01-23T10:48:33.079Z,11.78
2023-01-23T10:51:00.961Z,11.81
2023-01-23T10:53:28.006Z,11.63
2023-01-23T10:55:59.415Z,11.36
2023-01-23T10:58:43.566Z,11.49
2023-01-23T11:01:32.994Z,11.66
2023-01-23T11:04:21.929Z,11.73
2023-01-23T11:07:05.932Z,11.82
2023-01-23T11:09:33.577Z,11.88
2023-01-23T11:12:05.228Z,11.99
2023-01-23T11:14:32.911Z,12.10
2023-01-23T11:17:22.502Z,12.09
2023-01-23T11:19:54.329Z,11.76
2023-01-23T11:22:27.678Z,11.77
2023-01-23T11:24:54.996Z,11.58
2023-01-23T11:27:26.732Z,11.54
2023-01-23T11:29:59.762Z,11.66
2023-01-23T11:32:29.233Z,11.72
2023-01-23T11:35:11.997Z,11.84
2023-01-23T11:37:40.605Z,12.02
2023-01-23T11:40:17.194Z,12.04
2023-01-23T11:42:44.871Z,12.07
2023-01-23T11:45:45.189Z,11.78
2023-01-23T11:48:41.506Z,11.75
2023-01-23T11:51:42.954Z,11.71
2023-01-23T11:54:42.521Z,11.73
2023-01-23T11:57:33.939Z,11.72
2023-01-23T12:00:07.518Z,11.65
2023-01-23T12:02:58.819Z,11.65
2023-01-23T12:05:31.795Z,11.71
2023-01-23T12:08:11.658Z,11.86
2023-01-23T12:11:16.413Z,11.94
2023-01-23T12:14:27.696Z,11.96
2023-01-23T12:17:08.904Z,11.91
2023-01-23T12:19:36.831Z,11.97
2023-01-23T12:22:03.668Z,11.80
2023-01-23T12:25:06.508Z,11.77
2023-01-23T12:27:46.360Z,11.38
2023-01-23T12:30:35.966Z,11.51
2023-01-23T12:33:18.394Z,11.61
2023-01-23T12:35:59.464Z,11.65
2023-01-23T12:38:47.514Z,11.71
2023-01-23T12:41:26.332Z,11.54
2023-01-23T12:44:32.024Z,11.52
2023-01-23T12:47:05.958Z,11.43
2023-01-23T12:49:44.212Z,10.92
2023-01-23T12:52:36.005Z,10.97
2023-01-23T12:55:19.344Z,10.82
2023-01-23T12:58:00.277Z,10.92
2023-01-23T13:01:13.123Z,10.96
2023-01-23T13:03:59.328Z,10.98
2023-01-23T13:06:43.252Z,11.07
2023-01-23T13:09:34.276Z,11.10
2023-01-23T13:12:22.389Z,11.10
2023-01-23T13:15:13.325Z,10.89
2023-01-23T13:17:59.977Z,10.80
2023-01-23T13:20:54.269Z,10.82
2023-01-23T13:23:24.488Z,10.82
2023-01-23T13:26:21.154Z,10.99
2023-01-23T13:29:31.407Z,10.92
2023-01-23T13:32:28.254Z,10.94
2023-01-23T13:34:55.813Z,10.91
2023-01-23T13:37:29.106Z,10.90
2023-01-23T13:40:15.869Z,10.92
2023-01-23T13:42:43.918Z,10.85
2023-01-23T13:45:16.903Z,10.85
2023-01-23T14:31:07.151Z,11.01
2023-01-23T14:33:49.648Z,11.01
2023-01-23T14:36:19.889Z,10.80
2023-01-23T14:38:50.164Z,10.73
2023-01-23T14:41:20.918Z,10.69
2023-01-23T14:43:57.743Z,10.67
2023-01-23T14:46:36.001Z,10.64
2023-01-23T14:49:11.201Z,10.53
2023-01-23T14:51:39.716Z,10.42
2023-01-23T14:54:20.402Z,10.34
2023-01-23T14:56:51.627Z,10.38
2023-01-23T14:59:32.829Z,10.40
2023-01-23T15:02:13.172Z,10.41
2023-01-23T15:05:08.054Z,10.27
2023-01-23T15:07:43.899Z,10.28
2023-01-23T15:10:20.144Z,10.42
2023-01-23T15:13:21.548Z,10.43
2023-01-23T15:16:04.069Z,10.28
2023-01-23T15:18:35.591Z,10.36
2023-01-23T15:21:08.348Z,10.24
2023-01-23T15:23:38.326Z,10.17
2023-01-23T15:26:18.745Z,10.13
2023-01-23T15:28:55.401Z,9.99
2023-01-23T15:31:42.359Z,10.03
2023-01-23T15:34:15.729Z,9.91
2023-01-23T15:37:06.693Z,9.87
2023-01-23T15:39:49.521Z,9.83
2023-01-23T15:42:16.867Z,9.83
2023-01-23T15:44:44.344Z,9.94
2023-01-23T15:47:11.464Z,10.05
2023-01-23T15:49:40.469Z,10.16
2023-01-23T15:52:25.739Z,10.55
2023-01-23T15:55:01.693Z,10.65
2023-01-23T15:57:29.136Z,10.69
2023-01-23T15:59:55.962Z,10.72
2023-01-23T16:02:31.298Z,10.78
2023-01-23T16:05:02.350Z,10.58
2023-01-23T16:07:35.757Z,10.50
2023-01-23T16:10:17.158Z,10.57
2023-01-23T16:12:46.936Z,10.50
2023-01-23T16:15:19.802Z,10.45
2023-01-23T16:17:47.536Z,10.43
2023-01-23T16:20:28.986Z,10.39
2023-01-23T16:23:08.503Z,10.39
2023-01-23T16:25:44.850Z,10.38
2023-01-23T16:28:24.464Z,10.38
2023-01-23T16:30:52.157Z,10.33
2023-01-23T16:33:20.303Z,10.31
2023-01-23T16:35:49.357Z,10.27
2023-01-23T16:38:24.442Z,10.25
2023-01-23T16:40:54.193Z,10.22
2023-01-23T16:43:21.809Z,10.18
2023-01-23T16:45:49.119Z,10.13
2023-01-23T16:48:26.798Z,10.13
2023-01-23T16:51:05.291Z,10.13
2023-01-23T16:53:40.911Z,10.14
2023-01-23T16:56:13.098Z,10.13
2023-01-23T16:58:41.257Z,10.13
2023-01-23T17:01:15.931Z,10.13
2023-01-23T17:03:44.396Z,10.10
2023-01-23T17:06:16.422Z,10.08
2023-01-23T17:08:43.377Z,10.07
2023-01-23T17:11:17.618Z,10.06
2023-01-23T17:13:47.735Z,10.02
2023-01-23T17:16:26.394Z,10.06
2023-01-23T17:18:59.528Z,10.02
2023-01-23T17:21:33.877Z,10.01
2023-01-23T17:24:01.379Z,9.99
2023-01-23T17:26:28.293Z,9.95
2023-01-23T17:28:55.860Z,9.93
2023-01-23T17:31:28.636Z,9.92
2023-01-23T17:33:56.292Z,9.87
2023-01-23T17:36:26.446Z,9.83
2023-01-23T17:38:59.679Z,9.81
2023-01-23T17:41:26.541Z,9.80
2023-01-23T17:43:54.271Z,9.70
2023-01-23T17:46:27.051Z,9.66
2023-01-23T17:48:56.377Z,9.63
2023-01-23T17:51:25.373Z,9.60
2023-01-23T17:53:53.469Z,9.57
2023-01-23T17:56:22.944Z,9.48
2023-01-23T17:58:49.811Z,9.39
2023-01-23T18:01:23.662Z,9.38
2023-01-23T18:03:52.082Z,9.35
2023-01-23T18:06:21.523Z,9.31
2023-01-23T18:08:48.727Z,9.25
2023-01-23T18:11:23.885Z,9.23
2023-01-23T18:14:08.210Z,9.21
2023-01-23T18:16:45.674Z,9.25
2023-01-23T18:19:19.398Z,9.21
2023-01-23T18:21:57.901Z,9.17
2023-01-23T18:24:30.487Z,9.15
2023-01-23T18:27:12.080Z,9.11
2023-01-23T18:29:58.286Z,9.06
2023-01-23T18:32:40.639Z,9.09
2023-01-23T18:35:20.095Z,9.08
2023-01-23T18:38:03.962Z,9.05
2023-01-23T18:40:53.546Z,9.05
2023-01-23T18:43:43.812Z,9.03
2023-01-23T18:46:16.235Z,9.23
2023-01-23T18:48:45.182Z,9.27
2023-01-23T18:51:21.027Z,9.31
2023-01-23T18:54:14.282Z,9.30
2023-01-23T18:56:52.916Z,9.10
2023-01-23T18:59:25.373Z,9.06
2023-01-23T19:02:01.000Z,9.26
2023-01-23T19:04:38.684Z,9.24
2023-01-23T19:07:16.111Z,9.22
2023-01-23T19:09:46.596Z,9.18
2023-01-23T19:12:25.348Z,9.15
2023-01-23T19:15:08.430Z,9.17
2023-01-23T19:17:44.225Z,9.17
2023-01-23T19:20:26.415Z,9.13
2023-01-23T19:23:17.809Z,9.12
2023-01-23T19:25:48.273Z,9.12
2023-01-23T19:28:16.464Z,9.03
2023-01-23T19:30:43.749Z,9.04
2023-01-23T19:33:19.185Z,8.98
2023-01-23T19:35:47.439Z,9.00
2023-01-23T19:38:17.617Z,9.00
2023-01-23T19:40:45.848Z,9.05
2023-01-23T19:43:17.008Z,9.05
2023-01-23T19:45:45.267Z,9.04
2023-01-23T19:48:12.657Z,9.09
2023-01-23T19:50:41.004Z,9.05
2023-01-23T19:53:08.342Z,9.05
2023-01-23T19:55:38.429Z,9.08
2023-01-23T19:58:05.655Z,9.08
2023-01-23T20:00:38.772Z,9.07
2023-01-23T20:03:05.909Z,9.02
2023-01-23T20:05:33.136Z,8.98
2023-01-23T20:08:01.154Z,9.03
2023-01-23T20:10:28.730Z,9.07
2023-01-23T20:12:56.788Z,9.07
2023-01-23T20:15:25.754Z,9.11
2023-01-23T20:17:54.688Z,9.14
2023-01-23T20:20:22.234Z,9.11
2023-01-23T20:22:51.572Z,9.11
2023-01-23T20:25:19.132Z,9.10
2023-01-23T20:27:46.181Z,9.11
2023-01-23T20:30:16.220Z,8.94
2023-01-23T20:32:44.411Z,8.82
2023-01-23T20:35:11.954Z,8.72
2023-01-23T20:37:38.927Z,8.66
2023-01-23T20:40:09.276Z,8.58
2023-01-23T20:42:36.141Z,8.51
2023-01-23T20:45:03.735Z,8.50
2023-01-23T20:47:30.661Z,8.43
2023-01-23T20:49:57.501Z,8.41
2023-01-23T20:52:43.482Z,8.35
2023-01-23T20:55:10.439Z,8.23
2023-01-23T20:57:56.025Z,8.14
2023-01-23T21:00:23.043Z,8.17
2023-01-23T21:02:50.622Z,8.15
2023-01-23T21:05:17.964Z,8.14
2023-01-23T21:07:44.837Z,8.18
2023-01-23T21:10:12.486Z,8.10
2023-01-23T21:12:39.306Z,8.18
2023-01-23T21:15:06.928Z,8.12
2023-01-23T21:17:34.220Z,8.15
2023-01-23T21:20:01.361Z,8.09
2023-01-23T21:22:28.221Z,8.00
2023-01-23T21:24:57.749Z,7.98
2023-01-23T21:27:26.058Z,8.00
2023-01-23T21:29:53.380Z,8.05
2023-01-23T21:32:21.530Z,8.07
2023-01-23T21:34:48.702Z,8.15
2023-01-23T21:37:15.872Z,8.25
2023-01-23T21:39:43.388Z,8.26
2023-01-23T21:42:10.189Z,8.23
2023-01-23T21:44:37.338Z,8.26
2023-01-23T21:47:04.506Z,8.20
2023-01-23T21:49:31.667Z,8.22
2023-01-23T21:51:58.474Z,8.23
2023-01-23T21:54:27.516Z,8.18
2023-01-23T21:56:54.400Z,8.11
2023-01-23T21:59:21.229Z,8.13
2023-01-23T22:01:48.587Z,8.11
2023-01-23T22:04:22.536Z,7.94
2023-01-23T22:06:55.497Z,7.82
2023-01-23T22:09:24.964Z,7.77
2023-01-23T22:11:52.885Z,7.87
2023-01-23T22:14:20.408Z,7.91
2023-01-23T22:16:49.525Z,7.90
2023-01-23T22:19:19.670Z,7.93
2023-01-23T22:21:47.352Z,7.96
2023-01-23T22:24:15.344Z,7.95
2023-01-23T22:26:42.934Z,7.94
2023-01-23T22:29:12.446Z,8.06
2023-01-23T22:31:39.365Z,8.08
2023-01-23T22:34:06.373Z,8.01
2023-01-23T22:36:33.191Z,8.07
2023-01-23T22:39:00.184Z,8.09
2023-01-23T22:41:28.699Z,7.95
2023-01-23T22:43:56.935Z,8.01
2023-01-23T22:46:24.110Z,7.91
2023-01-23T22:48:51.833Z,7.73
2023-01-23T22:51:24.761Z,7.73
2023-01-23T22:53:56.307Z,7.66
2023-01-23T22:56:23.943Z,7.74
2023-01-23T22:58:52.472Z,7.81
2023-01-23T23:01:20.329Z,7.94
2023-01-23T23:03:47.467Z,7.84
2023-01-23T23:06:16.765Z,7.79
2023-01-23T23:08:48.158Z,7.80
2023-01-23T23:11:21.795Z,7.71
2023-01-23T23:13:51.579Z,7.71
2023-01-23T23:16:27.449Z,7.74
2023-01-23T23:18:56.468Z,7.71
2023-01-23T23:21:28.776Z,7.68
2023-01-23T23:24:00.510Z,7.50
2023-01-23T23:26:30.143Z,7.48
2023-01-23T23:28:57.613Z,7.56
2023-01-23T23:31:25.450Z,7.51
2023-01-23T23:33:53.233Z,7.49
2023-01-23T23:36:20.595Z,7.53
2023-01-23T23:38:47.784Z,7.52
2023-01-23T23:41:17.893Z,7.47
2023-01-23T23:43:45.037Z,7.50
2023-01-23T23:46:13.368Z,7.52
2023-01-23T23:48:41.198Z,7.60
2023-01-23T23:51:11.288Z,7.65
2023-01-23T23:53:38.224Z,7.52
2023-01-23T23:56:06.612Z,7.51
2023-01-23T23:58:36.786Z,7.42
